createdAt,value
2022-09-07T00:02:57.322Z,15.25
2022-09-07T00:06:08.329Z,15.27
2022-09-07T00:09:13.227Z,15.23
2022-09-07T00:12:18.272Z,15.25
2022-09-07T00:15:23.402Z,15.27
2022-09-07T00:18:28.074Z,15.30
2022-09-07T00:21:33.234Z,15.30
2022-09-07T00:24:38.304Z,15.28
2022-09-07T00:27:44.096Z,15.32
2022-09-07T00:30:48.520Z,15.35
2022-09-07T00:33:58.375Z,15.23
2022-09-07T00:37:05.799Z,15.33
2022-09-07T00:40:10.941Z,15.31
2022-09-07T00:43:34.855Z,15.23
2022-09-07T00:46:40.771Z,15.14
2022-09-07T00:49:48.360Z,15.22
2022-09-07T00:53:14.449Z,15.29
2022-09-07T00:56:20.929Z,15.22
2022-09-07T00:59:32.414Z,15.26
2022-09-07T01:02:37.567Z,15.22
2022-09-07T01:05:48.604Z,15.26
2022-09-07T01:08:53.947Z,15.24
2022-09-07T01:12:01.006Z,15.25
2022-09-07T01:15:06.268Z,15.23
2022-09-07T01:18:52.989Z,15.17
2022-09-07T01:22:06.481Z,15.16
2022-09-07T01:25:19.662Z,15.20
2022-09-07T01:28:32.338Z,15.16
2022-09-07T01:31:47.840Z,15.19
2022-09-07T01:34:55.037Z,15.15
2022-09-07T01:38:11.206Z,15.08
2022-09-07T01:41:44.441Z,15.14
2022-09-07T01:44:58.152Z,15.18
2022-09-07T01:48:08.512Z,15.18
2022-09-07T01:51:14.211Z,15.24
2022-09-07T01:54:38.038Z,15.15
2022-09-07T01:58:02.025Z,15.20
2022-09-07T02:01:25.702Z,15.19
2022-09-07T02:04:45.442Z,15.19
2022-09-07T02:08:22.754Z,15.13
2022-09-07T02:11:39.691Z,15.09
2022-09-07T02:14:53.204Z,15.13
2022-09-07T02:18:24.449Z,15.13
2022-09-07T02:21:41.945Z,15.16
2022-09-07T02:24:52.775Z,15.12
2022-09-07T02:28:08.783Z,15.05
2022-09-07T02:31:16.127Z,15.11
2022-09-07T02:34:21.163Z,15.04
2022-09-07T02:37:37.666Z,15.10
2022-09-07T02:40:42.611Z,15.04
2022-09-07T02:43:55.203Z,15.08
2022-09-07T02:47:15.291Z,15.02
2022-09-07T02:50:54.295Z,15.05
2022-09-07T02:54:18.886Z,14.98
2022-09-07T02:58:07.741Z,15.05
2022-09-07T03:01:58.337Z,15.05
2022-09-07T03:05:26.559Z,15.10
2022-09-07T03:08:45.311Z,15.07
2022-09-07T03:11:50.567Z,15.09
2022-09-07T03:14:57.584Z,15.11
2022-09-07T03:18:05.517Z,15.13
2022-09-07T03:21:11.489Z,15.12
2022-09-07T03:24:16.459Z,15.10
2022-09-07T03:27:21.248Z,15.12
2022-09-07T03:30:28.856Z,15.11
2022-09-07T03:33:34.033Z,15.11
2022-09-07T03:36:40.486Z,15.11
2022-09-07T03:39:45.287Z,15.08
2022-09-07T03:42:50.910Z,15.08
2022-09-07T03:46:05.330Z,15.04
2022-09-07T03:49:22.135Z,15.08
2022-09-07T03:52:27.060Z,15.08
2022-09-07T03:55:32.036Z,15.03
2022-09-07T03:58:37.601Z,15.08
2022-09-07T04:01:48.011Z,15.11
2022-09-07T04:04:55.079Z,15.10
2022-09-07T04:07:59.822Z,15.05
2022-09-07T04:11:07.114Z,15.06
2022-09-07T04:14:12.252Z,15.07
2022-09-07T04:17:17.520Z,15.00
2022-09-07T04:20:22.358Z,15.03
2022-09-07T04:23:26.883Z,14.99
2022-09-07T04:26:33.754Z,15.05
2022-09-07T04:29:38.346Z,15.03
2022-09-07T04:32:43.194Z,14.98
2022-09-07T04:35:48.386Z,15.00
2022-09-07T04:39:05.467Z,15.08
2022-09-07T04:42:12.338Z,15.07
2022-09-07T04:45:17.120Z,15.11
2022-09-07T04:48:22.170Z,14.96
2022-09-07T04:51:30.356Z,14.96
2022-09-07T04:54:35.376Z,15.08
2022-09-07T04:58:27.119Z,15.15
2022-09-07T05:01:35.037Z,15.15
2022-09-07T05:04:39.730Z,15.03
2022-09-07T05:07:47.875Z,15.09
2022-09-07T05:10:55.749Z,15.16
2022-09-07T05:14:03.031Z,15.19
2022-09-07T05:17:07.911Z,15.08
2022-09-07T05:20:16.289Z,15.00
2022-09-07T05:23:23.659Z,14.98
2022-09-07T05:26:36.108Z,15.02
2022-09-07T05:37:34.604Z,15.04
2022-09-07T05:41:11.897Z,15.17
2022-09-07T05:44:45.004Z,15.14
2022-09-07T05:48:35.473Z,15.17
2022-09-07T05:52:36.381Z,15.12
2022-09-07T05:56:08.393Z,15.24
2022-09-07T05:59:34.455Z,15.09
2022-09-07T06:03:05.672Z,15.13
2022-09-07T06:06:30.888Z,15.18
2022-09-07T06:13:25.715Z,15.14
2022-09-07T06:16:48.666Z,15.17
2022-09-07T06:30:45.052Z,15.23
2022-09-07T06:34:16.748Z,15.26
2022-09-07T06:37:42.825Z,15.29
2022-09-07T06:44:36.363Z,15.30
2022-09-07T06:47:50.455Z,15.31
2022-09-07T06:51:23.840Z,15.24
2022-09-07T06:59:06.661Z,15.21
2022-09-07T07:02:24.959Z,15.22
2022-09-07T07:05:31.990Z,15.17
2022-09-07T07:13:45.954Z,15.29
2022-09-07T07:17:22.409Z,15.35
2022-09-07T07:20:38.607Z,15.40
2022-09-07T07:23:50.842Z,15.43
2022-09-07T07:27:24.466Z,15.40
2022-09-07T07:31:39.115Z,15.45
2022-09-07T07:34:45.543Z,15.20
2022-09-07T07:41:55.376Z,15.12
2022-09-07T07:48:59.225Z,15.07
2022-09-07T07:56:14.253Z,14.91
2022-09-07T07:59:28.767Z,14.85
2022-09-07T08:02:39.176Z,14.85
2022-09-07T08:06:00.116Z,14.88
2022-09-07T08:10:06.068Z,14.91
2022-09-07T08:14:10.732Z,14.82
2022-09-07T08:22:17.207Z,14.78
2022-09-07T08:25:29.349Z,14.83
2022-09-07T08:29:20.130Z,14.88
2022-09-07T08:32:55.515Z,14.88
2022-09-07T08:36:47.541Z,14.93
2022-09-07T08:39:59.282Z,14.95
2022-09-07T08:43:20.551Z,15.02
2022-09-07T08:47:25.337Z,15.05
2022-09-07T08:51:11.746Z,15.03
2022-09-07T08:54:46.500Z,15.06
2022-09-07T08:58:51.717Z,15.17
2022-09-07T09:02:35.190Z,15.33
2022-09-07T09:06:35.494Z,15.28
2022-09-07T09:10:20.857Z,15.41
2022-09-07T09:13:59.554Z,15.33
2022-09-07T09:17:29.051Z,15.27
2022-09-07T09:21:27.511Z,15.36
2022-09-07T09:25:17.198Z,15.31
2022-09-07T09:28:31.724Z,15.23
2022-09-07T09:32:13.528Z,15.28
2022-09-07T09:35:43.181Z,15.24
2022-09-07T09:39:42.507Z,15.25
2022-09-07T09:56:22.550Z,14.91
2022-09-07T10:00:20.267Z,14.71
2022-09-07T10:04:24.636Z,14.73
2022-09-07T10:08:09.330Z,14.72
2022-09-07T10:15:14.553Z,14.95
2022-09-07T10:18:34.541Z,15.13
2022-09-07T10:22:00.167Z,15.22
2022-09-07T10:29:48.003Z,15.74
2022-09-07T10:38:00.778Z,16.05
2022-09-07T10:41:10.211Z,16.26
2022-09-07T11:55:25.796Z,17.85
2022-09-07T11:58:32.856Z,17.78
2022-09-07T12:01:59.532Z,18.06
2022-09-07T12:05:19.547Z,18.21
2022-09-07T12:08:45.366Z,18.11
2022-09-07T12:12:34.088Z,18.20
2022-09-07T12:16:15.122Z,18.34
2022-09-07T12:19:24.676Z,18.43
2022-09-07T12:22:29.144Z,18.55
2022-09-07T12:25:35.057Z,18.60
2022-09-07T12:28:39.335Z,18.87
2022-09-07T12:31:59.704Z,19.00
2022-09-07T12:35:27.286Z,19.06
2022-09-07T12:38:31.646Z,19.04
2022-09-07T12:45:29.605Z,19.29
2022-09-07T12:49:22.887Z,19.48
2022-09-07T12:52:51.558Z,19.68
2022-09-07T12:56:26.836Z,19.87
2022-09-07T13:00:02.114Z,19.83
2022-09-07T13:07:07.746Z,19.88
2022-09-07T13:10:33.894Z,19.91
2022-09-07T13:17:43.272Z,19.88
2022-09-07T13:21:07.509Z,19.88
2022-09-07T13:28:04.522Z,19.99
2022-09-07T13:32:02.835Z,20.01
2022-09-07T13:35:28.146Z,19.94
2022-09-07T13:38:36.505Z,20.09
2022-09-07T13:41:55.539Z,20.04
2022-09-07T13:45:04.978Z,20.12
2022-09-07T13:48:37.573Z,20.22
2022-09-07T13:52:18.144Z,20.21
2022-09-07T13:55:32.527Z,20.29
2022-09-07T13:58:41.102Z,20.35
2022-09-07T14:01:48.561Z,20.35
2022-09-07T14:04:56.216Z,20.39
2022-09-07T14:08:00.209Z,20.27
2022-09-07T14:11:22.955Z,20.33
2022-09-07T14:14:30.358Z,20.35
2022-09-07T14:17:35.048Z,20.29
2022-09-07T14:20:46.902Z,20.46
2022-09-07T14:23:51.498Z,20.38
2022-09-07T14:26:56.201Z,20.29
2022-09-07T14:30:20.206Z,20.36
2022-09-07T14:33:24.792Z,20.27
2022-09-07T14:36:45.614Z,20.35
2022-09-07T14:39:52.746Z,20.30
2022-09-07T14:42:57.279Z,20.26
2022-09-07T14:46:34.192Z,20.31
2022-09-07T14:49:39.229Z,20.28
2022-09-07T14:53:33.656Z,20.16
2022-09-07T14:56:11.262Z,20.06
2022-09-07T14:59:48.383Z,20.01
2022-09-07T15:02:52.712Z,20.09
2022-09-07T15:06:02.307Z,20.15
2022-09-07T15:09:26.553Z,20.15
2022-09-07T15:12:38.563Z,20.25
2022-09-07T15:15:46.784Z,20.29
2022-09-07T15:18:56.967Z,20.35
2022-09-07T15:22:04.867Z,20.33
2022-09-07T15:25:11.303Z,20.30
2022-09-07T15:32:03.903Z,20.29
2022-09-07T15:35:10.488Z,20.27
2022-09-07T15:41:39.476Z,20.19
2022-09-07T15:44:44.217Z,20.21
2022-09-07T15:47:52.185Z,20.22
2022-09-07T15:52:04.662Z,20.20
2022-09-07T15:54:29.531Z,20.27
2022-09-07T15:57:54.519Z,20.30
2022-09-07T16:04:26.055Z,20.38
2022-09-07T16:10:55.836Z,20.32
2022-09-07T16:14:12.341Z,20.27
2022-09-07T16:20:42.202Z,20.20
2022-09-07T16:23:50.350Z,20.17
2022-09-07T16:26:55.098Z,20.09
2022-09-07T16:29:59.787Z,20.03
2022-09-07T16:33:04.454Z,19.96
2022-09-07T16:36:16.154Z,19.90
2022-09-07T16:39:20.820Z,19.84
2022-09-07T16:42:24.940Z,19.80
2022-09-07T16:48:54.222Z,19.69
2022-09-07T16:51:59.069Z,19.67
2022-09-07T16:55:05.186Z,19.64
2022-09-07T17:01:37.673Z,19.49
2022-09-07T17:04:42.440Z,19.45
2022-09-07T17:07:47.721Z,19.41
2022-09-07T17:10:52.306Z,19.39
2022-09-07T17:13:58.928Z,19.36
2022-09-07T17:17:03.537Z,19.31
2022-09-07T17:20:08.684Z,19.25
2022-09-07T17:23:12.881Z,19.17
2022-09-07T17:26:19.672Z,19.11
2022-09-07T17:29:24.096Z,19.03
2022-09-07T17:32:29.971Z,18.96
2022-09-07T17:35:37.376Z,18.91
2022-09-07T17:42:06.751Z,18.83
2022-09-07T17:45:11.618Z,18.83
2022-09-07T17:48:16.228Z,18.78
2022-09-07T17:51:21.717Z,18.76
2022-09-07T17:54:26.226Z,18.70
2022-09-07T17:57:32.586Z,18.68
2022-09-07T18:00:37.137Z,18.65
2022-09-07T18:03:42.169Z,18.57
2022-09-07T18:06:46.851Z,18.63
2022-09-07T18:09:51.244Z,18.53
2022-09-07T18:12:55.476Z,18.51
2022-09-07T18:16:00.281Z,18.45
2022-09-07T18:19:09.308Z,18.43
2022-09-07T18:22:15.110Z,18.38
2022-09-07T18:25:19.704Z,18.37
2022-09-07T18:31:48.818Z,18.28
2022-09-07T18:34:52.967Z,18.22
2022-09-07T18:37:58.670Z,18.17
2022-09-07T18:41:15.766Z,18.13
2022-09-07T18:47:46.583Z,17.97
2022-09-07T18:50:55.409Z,17.99
2022-09-07T18:54:00.125Z,17.97
2022-09-07T18:57:04.239Z,17.88
2022-09-07T19:00:11.060Z,17.88
2022-09-07T19:03:16.778Z,17.91
2022-09-07T19:06:23.818Z,17.86
2022-09-07T19:09:28.199Z,17.81
2022-09-07T19:12:32.895Z,17.79
2022-09-07T19:15:38.037Z,17.75
2022-09-07T19:18:47.315Z,17.70
2022-09-07T19:21:51.679Z,17.70
2022-09-07T19:24:55.722Z,17.67
2022-09-07T19:28:00.084Z,17.69
2022-09-07T19:31:06.598Z,17.69
2022-09-07T19:34:11.538Z,17.71
2022-09-07T19:37:16.131Z,17.70
2022-09-07T19:40:20.831Z,17.71
2022-09-07T19:43:26.868Z,17.73
2022-09-07T19:46:31.319Z,17.68
2022-09-07T19:49:35.991Z,17.68
2022-09-07T19:52:40.491Z,17.65
2022-09-07T19:55:45.307Z,17.61
2022-09-07T19:58:50.719Z,17.61
2022-09-07T20:01:55.530Z,17.64
2022-09-07T20:04:59.906Z,17.67
2022-09-07T20:08:04.181Z,17.62
2022-09-07T20:11:12.136Z,17.63
2022-09-07T20:14:19.072Z,17.59
2022-09-07T20:17:23.804Z,17.55
2022-09-07T20:20:28.160Z,17.56
2022-09-07T20:23:34.474Z,17.55
2022-09-07T20:26:39.255Z,17.54
2022-09-07T20:29:43.426Z,17.60
2022-09-07T20:32:48.109Z,17.51
2022-09-07T20:35:52.942Z,17.48
2022-09-07T20:38:57.313Z,17.48
2022-09-07T20:42:02.209Z,17.45
2022-09-07T20:45:08.021Z,17.44
2022-09-07T20:48:12.878Z,17.46
2022-09-07T20:51:21.066Z,17.41
2022-09-07T20:54:26.037Z,17.37
2022-09-07T20:57:30.987Z,17.36
2022-09-07T21:00:38.680Z,17.34
2022-09-07T21:03:51.270Z,17.31
2022-09-07T21:06:55.746Z,17.33
2022-09-07T21:10:03.477Z,17.31
2022-09-07T21:13:11.581Z,17.24
2022-09-07T21:16:16.698Z,17.16
2022-09-07T21:19:21.359Z,17.10
2022-09-07T21:22:25.657Z,17.03
2022-09-07T21:25:30.427Z,16.98
2022-09-07T21:28:34.557Z,16.91
2022-09-07T21:31:38.741Z,16.88
2022-09-07T21:34:43.412Z,16.87
2022-09-07T21:37:47.907Z,16.88
2022-09-07T21:40:52.105Z,16.83
2022-09-07T21:44:02.627Z,16.85
2022-09-07T21:47:08.230Z,16.83
2022-09-07T21:50:12.688Z,16.80
2022-09-07T21:53:17.288Z,16.81
2022-09-07T21:56:22.283Z,16.79
2022-09-07T21:59:26.641Z,16.77
2022-09-07T22:02:31.177Z,16.79
2022-09-07T22:05:37.572Z,16.79
2022-09-07T22:08:42.901Z,16.74
2022-09-07T22:11:47.406Z,16.67
2022-09-07T22:14:52.040Z,16.64
2022-09-07T22:17:56.299Z,16.65
2022-09-07T22:21:14.598Z,16.61
2022-09-07T22:24:18.853Z,16.59
2022-09-07T22:27:23.415Z,16.54
2022-09-07T22:30:28.142Z,16.53
2022-09-07T22:33:32.497Z,16.49
2022-09-07T22:36:44.985Z,16.49
2022-09-07T22:39:49.811Z,16.48
2022-09-07T22:42:54.207Z,16.45
2022-09-07T22:46:00.199Z,16.43
2022-09-07T22:49:06.377Z,16.41
2022-09-07T22:52:10.370Z,16.38
2022-09-07T22:55:15.031Z,16.37
2022-09-07T22:58:19.434Z,16.38
2022-09-07T23:01:24.905Z,16.41
2022-09-07T23:04:31.830Z,16.39
2022-09-07T23:07:36.529Z,16.38
2022-09-07T23:10:40.994Z,16.39
2022-09-07T23:13:45.677Z,16.43
2022-09-07T23:16:50.732Z,16.42
2022-09-07T23:19:54.959Z,16.39
2022-09-07T23:22:59.704Z,16.36
2022-09-07T23:26:05.221Z,16.36
2022-09-07T23:29:12.693Z,16.32
2022-09-07T23:32:16.848Z,16.32
2022-09-07T23:35:21.135Z,16.27
2022-09-07T23:38:26.918Z,16.23
2022-09-07T23:41:31.575Z,16.22
2022-09-07T23:44:35.795Z,16.12
2022-09-07T23:47:40.394Z,16.05
2022-09-07T23:50:46.077Z,16.02
2022-09-07T23:53:50.233Z,16.01
2022-09-07T23:56:54.637Z,16.00
2022-09-07T23:59:59.029Z,16.01
